sensor_id;sensor_type;location;lat;lon;timestamp;pressure;altitude;pressure_sealevel;temperature;humidity
82728;BME280;72459;50.110;8.750;2024-01-06T00:01:24;99462.81;;;4.73;85.31
82728;BME280;72459;50.110;8.750;2024-01-06T00:03:49;99470.50;;;4.70;85.32
82728;BME280;72459;50.110;8.750;2024-01-06T00:06:15;99471.94;;;4.63;84.96
82728;BME280;72459;50.110;8.750;2024-01-06T00:08:40;99468.38;;;4.61;85.51
82728;BME280;72459;50.110;8.750;2024-01-06T00:11:05;99470.69;;;4.55;83.66
82728;BME280;72459;50.110;8.750;2024-01-06T00:13:31;99466.44;;;4.57;84.99
82728;BME280;72459;50.110;8.750;2024-01-06T00:15:56;99473.19;;;4.54;85.51
82728;BME280;72459;50.110;8.750;2024-01-06T00:18:22;99468.66;;;4.50;84.78
82728;BME280;72459;50.110;8.750;2024-01-06T00:20:47;99466.81;;;4.47;85.62
82728;BME280;72459;50.110;8.750;2024-01-06T00:23:13;99475.44;;;4.46;85.50
82728;BME280;72459;50.110;8.750;2024-01-06T00:25:38;99475.38;;;4.44;86.09
82728;BME280;72459;50.110;8.750;2024-01-06T00:28:04;99481.38;;;4.43;86.19
82728;BME280;72459;50.110;8.750;2024-01-06T00:30:30;99484.59;;;4.38;85.53
82728;BME280;72459;50.110;8.750;2024-01-06T00:32:55;99486.31;;;4.37;85.67
82728;BME280;72459;50.110;8.750;2024-01-06T00:35:20;99479.41;;;4.38;85.92
82728;BME280;72459;50.110;8.750;2024-01-06T00:37:47;99480.91;;;4.33;85.41
82728;BME280;72459;50.110;8.750;2024-01-06T00:40:13;99484.25;;;4.30;85.43
82728;BME280;72459;50.110;8.750;2024-01-06T00:42:38;99491.00;;;4.27;86.11
82728;BME280;72459;50.110;8.750;2024-01-06T00:45:04;99491.00;;;4.27;85.72
82728;BME280;72459;50.110;8.750;2024-01-06T00:47:30;99490.88;;;4.24;85.56
82728;BME280;72459;50.110;8.750;2024-01-06T00:49:56;99491.69;;;4.23;86.02
82728;BME280;72459;50.110;8.750;2024-01-06T00:52:21;99492.50;;;4.22;85.75
82728;BME280;72459;50.110;8.750;2024-01-06T00:54:46;99492.38;;;4.19;85.42
82728;BME280;72459;50.110;8.750;2024-01-06T00:57:12;99497.50;;;4.17;84.80
82728;BME280;72459;50.110;8.750;2024-01-06T00:59:37;99498.31;;;4.16;86.37
82728;BME280;72459;50.110;8.750;2024-01-06T01:02:03;99494.00;;;4.17;86.40
82728;BME280;72459;50.110;8.750;2024-01-06T01:04:28;99498.38;;;4.18;86.41
82728;BME280;72459;50.110;8.750;2024-01-06T01:06:54;99494.00;;;4.17;86.28
82728;BME280;72459;50.110;8.750;2024-01-06T01:09:19;99503.59;;;4.18;84.91
82728;BME280;72459;50.110;8.750;2024-01-06T01:11:45;99510.84;;;4.25;84.98
82728;BME280;72459;50.110;8.750;2024-01-06T01:14:10;99510.31;;;4.32;85.85
82728;BME280;72459;50.110;8.750;2024-01-06T01:16:35;99512.47;;;4.40;86.13
82728;BME280;72459;50.110;8.750;2024-01-06T01:19:01;99510.22;;;4.48;85.34
82728;BME280;72459;50.110;8.750;2024-01-06T01:21:27;99511.50;;;4.56;85.67
82728;BME280;72459;50.110;8.750;2024-01-06T01:23:53;99510.28;;;4.67;85.85
82728;BME280;72459;50.110;8.750;2024-01-06T01:26:18;99511.31;;;4.71;85.72
82728;BME280;72459;50.110;8.750;2024-01-06T01:28:44;99519.47;;;4.78;85.14
82728;BME280;72459;50.110;8.750;2024-01-06T01:31:09;99512.75;;;4.84;85.55
82728;BME280;72459;50.110;8.750;2024-01-06T01:33:34;99511.25;;;4.89;85.57
82728;BME280;72459;50.110;8.750;2024-01-06T01:36:00;99516.72;;;4.95;85.29
82728;BME280;72459;50.110;8.750;2024-01-06T01:38:25;99516.84;;;4.98;85.73
82728;BME280;72459;50.110;8.750;2024-01-06T01:40:50;99526.66;;;5.03;85.76
82728;BME280;72459;50.110;8.750;2024-01-06T01:43:17;99517.19;;;5.05;85.24
82728;BME280;72459;50.110;8.750;2024-01-06T01:45:43;99521.78;;;5.11;85.57
82728;BME280;72459;50.110;8.750;2024-01-06T01:48:08;99530.22;;;5.05;84.76
82728;BME280;72459;50.110;8.750;2024-01-06T01:50:34;99540.63;;;5.05;84.41
82728;BME280;72459;50.110;8.750;2024-01-06T01:52:59;99539.81;;;5.06;85.23
82728;BME280;72459;50.110;8.750;2024-01-06T01:55:25;99538.25;;;5.10;85.41
82728;BME280;72459;50.110;8.750;2024-01-06T01:57:51;99541.81;;;5.12;85.46
82728;BME280;72459;50.110;8.750;2024-01-06T02:00:17;99543.44;;;5.10;84.55
82728;BME280;72459;50.110;8.750;2024-01-06T02:02:42;99542.69;;;5.13;85.06
82728;BME280;72459;50.110;8.750;2024-01-06T02:05:08;99541.81;;;5.12;82.58
82728;BME280;72459;50.110;8.750;2024-01-06T02:07:34;99543.94;;;5.21;85.05
82728;BME280;72459;50.110;8.750;2024-01-06T02:09:59;99537.16;;;5.24;85.26
82728;BME280;72459;50.110;8.750;2024-01-06T02:12:25;99536.34;;;5.25;85.38
82728;BME280;72459;50.110;8.750;2024-01-06T02:14:50;99546.69;;;5.24;82.02
82728;BME280;72459;50.110;8.750;2024-01-06T02:17:16;99545.88;;;5.25;83.06
82728;BME280;72459;50.110;8.750;2024-01-06T02:19:41;99548.94;;;5.35;85.33
82728;BME280;72459;50.110;8.750;2024-01-06T02:22:07;99550.38;;;5.29;83.77
82728;BME280;72459;50.110;8.750;2024-01-06T02:24:32;99544.91;;;5.23;82.94
82728;BME280;72459;50.110;8.750;2024-01-06T02:26:58;99542.63;;;5.30;83.94
82728;BME280;72459;50.110;8.750;2024-01-06T02:29:24;99548.81;;;5.32;84.75
82728;BME280;72459;50.110;8.750;2024-01-06T02:31:49;99552.56;;;5.39;85.48
82728;BME280;72459;50.110;8.750;2024-01-06T02:34:15;99547.69;;;5.47;85.09
82728;BME280;72459;50.110;8.750;2024-01-06T02:36:40;99550.16;;;5.44;84.88
82728;BME280;72459;50.110;8.750;2024-01-06T02:39:07;99557.91;;;5.42;83.93
82728;BME280;72459;50.110;8.750;2024-01-06T02:41:33;99554.84;;;5.31;83.42
82728;BME280;72459;50.110;8.750;2024-01-06T02:43:58;99560.31;;;5.37;84.81
82728;BME280;72459;50.110;8.750;2024-01-06T02:46:24;99559.81;;;5.46;85.53
82728;BME280;72459;50.110;8.750;2024-01-06T02:48:49;99569.97;;;5.40;83.53
82728;BME280;72459;50.110;8.750;2024-01-06T02:51:15;99571.22;;;5.48;84.70
82728;BME280;72459;50.110;8.750;2024-01-06T02:53:40;99572.94;;;5.48;84.82
82728;BME280;72459;50.110;8.750;2024-01-06T02:56:10;99575.72;;;5.52;85.45
82728;BME280;72459;50.110;8.750;2024-01-06T02:58:36;99579.44;;;5.57;85.64
82728;BME280;72459;50.110;8.750;2024-01-06T03:01:01;99588.19;;;5.59;85.31
82728;BME280;72459;50.110;8.750;2024-01-06T03:03:27;99581.06;;;5.55;84.24
82728;BME280;72459;50.110;8.750;2024-01-06T03:05:52;99578.47;;;5.55;84.61
82728;BME280;72459;50.110;8.750;2024-01-06T03:08:17;99584.50;;;5.54;85.25
82728;BME280;72459;50.110;8.750;2024-01-06T03:10:44;99584.63;;;5.57;85.68
82728;BME280;72459;50.110;8.750;2024-01-06T03:13:09;99573.19;;;5.54;85.17
82728;BME280;72459;50.110;8.750;2024-01-06T03:15:35;99579.44;;;5.57;85.18
82728;BME280;72459;50.110;8.750;2024-01-06T03:18:00;99574.97;;;5.55;82.74
82728;BME280;72459;50.110;8.750;2024-01-06T03:20:25;99574.25;;;5.38;82.32
82728;BME280;72459;50.110;8.750;2024-01-06T03:22:51;99576.22;;;5.44;84.44
82728;BME280;72459;50.110;8.750;2024-01-06T03:25:16;99572.09;;;5.49;84.92
82728;BME280;72459;50.110;8.750;2024-01-06T03:27:41;99580.34;;;5.38;84.18
82728;BME280;72459;50.110;8.750;2024-01-06T03:30:07;99574.84;;;5.52;85.51
82728;BME280;72459;50.110;8.750;2024-01-06T03:32:33;99580.31;;;5.58;85.48
82728;BME280;72459;50.110;8.750;2024-01-06T03:34:58;99585.41;;;5.55;84.87
82728;BME280;72459;50.110;8.750;2024-01-06T03:37:23;99587.13;;;5.54;84.99
82728;BME280;72459;50.110;8.750;2024-01-06T03:39:49;99587.19;;;5.56;84.69
82728;BME280;72459;50.110;8.750;2024-01-06T03:42:14;99583.63;;;5.54;84.54
82728;BME280;72459;50.110;8.750;2024-01-06T03:44:40;99575.88;;;5.55;84.48
82728;BME280;72459;50.110;8.750;2024-01-06T03:47:05;99573.94;;;5.51;84.37
82728;BME280;72459;50.110;8.750;2024-01-06T03:49:31;99579.84;;;5.47;83.74
82728;BME280;72459;50.110;8.750;2024-01-06T03:51:56;99580.19;;;5.55;83.98
82728;BME280;72459;50.110;8.750;2024-01-06T03:54:22;99588.81;;;5.54;84.69
82728;BME280;72459;50.110;8.750;2024-01-06T03:56:47;99587.81;;;5.50;81.84
82728;BME280;72459;50.110;8.750;2024-01-06T03:59:13;99592.94;;;5.49;84.11
82728;BME280;72459;50.110;8.750;2024-01-06T04:01:38;99593.28;;;5.56;85.41
82728;BME280;72459;50.110;8.750;2024-01-06T04:04:04;99600.91;;;5.52;84.83
82728;BME280;72459;50.110;8.750;2024-01-06T04:06:30;99609.13;;;5.61;85.84
82728;BME280;72459;50.110;8.750;2024-01-06T04:08:57;99612.63;;;5.61;84.16
82728;BME280;72459;50.110;8.750;2024-01-06T04:11:23;99610.69;;;5.57;84.86
82728;BME280;72459;50.110;8.750;2024-01-06T04:13:48;99618.78;;;5.63;85.50
82728;BME280;72459;50.110;8.750;2024-01-06T04:16:14;99616.19;;;5.63;85.07
82728;BME280;72459;50.110;8.750;2024-01-06T04:18:39;99617.75;;;5.60;84.13
82728;BME280;72459;50.110;8.750;2024-01-06T04:21:05;99616.19;;;5.63;85.09
82728;BME280;72459;50.110;8.750;2024-01-06T04:23:30;99611.84;;;5.64;85.62
82728;BME280;72459;50.110;8.750;2024-01-06T04:25:56;99611.31;;;5.52;84.84
82728;BME280;72459;50.110;8.750;2024-01-06T04:28:21;99613.09;;;5.53;84.13
82728;BME280;72459;50.110;8.750;2024-01-06T04:30:47;99616.66;;;5.55;83.85
82728;BME280;72459;50.110;8.750;2024-01-06T04:33:13;99616.72;;;5.56;84.79
82728;BME280;72459;50.110;8.750;2024-01-06T04:35:39;99622.84;;;5.57;84.82
82728;BME280;72459;50.110;8.750;2024-01-06T04:38:04;99617.06;;;5.64;86.02
82728;BME280;72459;50.110;8.750;2024-01-06T04:40:30;99616.81;;;5.58;82.81
82728;BME280;72459;50.110;8.750;2024-01-06T04:42:55;99616.81;;;5.58;83.68
82728;BME280;72459;50.110;8.750;2024-01-06T04:45:21;99618.50;;;5.57;83.64
82728;BME280;72459;50.110;8.750;2024-01-06T04:47:49;99614.00;;;5.53;83.15
82728;BME280;72459;50.110;8.750;2024-01-06T04:50:14;99614.25;;;5.59;84.64
82728;BME280;72459;50.110;8.750;2024-01-06T04:52:40;99615.91;;;5.57;84.64
82728;BME280;72459;50.110;8.750;2024-01-06T04:55:05;99621.13;;;5.57;85.06
82728;BME280;72459;50.110;8.750;2024-01-06T04:57:31;99614.19;;;5.58;85.11
82728;BME280;72459;50.110;8.750;2024-01-06T04:59:56;99616.25;;;5.46;81.54
82728;BME280;72459;50.110;8.750;2024-01-06T05:02:23;99612.69;;;5.44;84.06
82728;BME280;72459;50.110;8.750;2024-01-06T05:04:50;99619.00;;;5.49;82.32
82728;BME280;72459;50.110;8.750;2024-01-06T05:07:15;99613.66;;;5.46;84.61
82728;BME280;72459;50.110;8.750;2024-01-06T05:09:40;99602.91;;;5.38;81.80
82728;BME280;72459;50.110;8.750;2024-01-06T05:12:06;99600.50;;;5.43;84.67
82728;BME280;72459;50.110;8.750;2024-01-06T05:14:32;99600.09;;;5.33;81.07
82728;BME280;72459;50.110;8.750;2024-01-06T05:16:57;99610.38;;;5.30;81.79
82728;BME280;72459;50.110;8.750;2024-01-06T05:19:22;99605.16;;;5.30;83.48
82728;BME280;72459;50.110;8.750;2024-01-06T05:21:48;99604.53;;;5.36;84.39
82728;BME280;72459;50.110;8.750;2024-01-06T05:24:14;99604.75;;;5.40;84.27
82728;BME280;72459;50.110;8.750;2024-01-06T05:26:39;99608.19;;;5.39;84.11
82728;BME280;72459;50.110;8.750;2024-01-06T05:29:05;99608.31;;;5.43;84.33
82728;BME280;72459;50.110;8.750;2024-01-06T05:31:30;99615.25;;;5.42;83.32
82728;BME280;72459;50.110;8.750;2024-01-06T05:33:55;99620.59;;;5.45;84.41
82728;BME280;72459;50.110;8.750;2024-01-06T05:36:21;99615.50;;;5.48;84.67
82728;BME280;72459;50.110;8.750;2024-01-06T05:38:46;99620.72;;;5.48;83.37
82728;BME280;72459;50.110;8.750;2024-01-06T05:41:11;99617.50;;;5.54;84.12
82728;BME280;72459;50.110;8.750;2024-01-06T05:43:37;99620.09;;;5.54;85.10
82728;BME280;72459;50.110;8.750;2024-01-06T05:46:02;99617.91;;;5.44;83.67
82728;BME280;72459;50.110;8.750;2024-01-06T05:48:28;99628.75;;;5.53;84.88
82728;BME280;72459;50.110;8.750;2024-01-06T05:50:55;99635.47;;;5.48;84.60
82728;BME280;72459;50.110;8.750;2024-01-06T05:53:21;99630.53;;;5.54;84.86
82728;BME280;72459;50.110;8.750;2024-01-06T05:55:47;99641.56;;;5.48;85.12
82728;BME280;72459;50.110;8.750;2024-01-06T05:58:12;99645.06;;;5.49;83.71
82728;BME280;72459;50.110;8.750;2024-01-06T06:00:37;99640.19;;;5.56;85.23
82728;BME280;72459;50.110;8.750;2024-01-06T06:03:04;99643.63;;;5.55;85.23
82728;BME280;72459;50.110;8.750;2024-01-06T06:05:29;99644.59;;;5.57;84.83
82728;BME280;72459;50.110;8.750;2024-01-06T06:07:55;99649.19;;;5.44;83.04
82728;BME280;72459;50.110;8.750;2024-01-06T06:10:20;99647.66;;;5.49;84.03
82728;BME280;72459;50.110;8.750;2024-01-06T06:12:45;99651.78;;;5.44;82.83
82728;BME280;72459;50.110;8.750;2024-01-06T06:15:11;99662.22;;;5.44;83.46
82728;BME280;72459;50.110;8.750;2024-01-06T06:17:36;99659.25;;;5.55;85.17
82728;BME280;72459;50.110;8.750;2024-01-06T06:20:02;99663.50;;;5.53;84.97
82728;BME280;72459;50.110;8.750;2024-01-06T06:22:28;99666.47;;;5.41;82.96
82728;BME280;72459;50.110;8.750;2024-01-06T06:24:57;99666.19;;;5.55;85.18
82728;BME280;72459;50.110;8.750;2024-01-06T06:27:23;99660.63;;;5.47;82.91
82728;BME280;72459;50.110;8.750;2024-01-06T06:29:48;99665.84;;;5.47;81.35
82728;BME280;72459;50.110;8.750;2024-01-06T06:32:14;99673.78;;;5.50;83.66
82728;BME280;72459;50.110;8.750;2024-01-06T06:34:40;99682.66;;;5.54;83.10
82728;BME280;72459;50.110;8.750;2024-01-06T06:37:05;99679.34;;;5.58;85.26
82728;BME280;72459;50.110;8.750;2024-01-06T06:39:32;99690.53;;;5.55;82.92
82728;BME280;72459;50.110;8.750;2024-01-06T06:41:58;99689.38;;;5.49;82.50
82728;BME280;72459;50.110;8.750;2024-01-06T06:44:23;99697.81;;;5.62;84.37
82728;BME280;72459;50.110;8.750;2024-01-06T06:46:49;99697.06;;;5.65;84.35
82728;BME280;72459;50.110;8.750;2024-01-06T06:49:14;99694.66;;;5.69;84.64
82728;BME280;72459;50.110;8.750;2024-01-06T06:51:39;99697.13;;;5.66;84.77
82728;BME280;72459;50.110;8.750;2024-01-06T06:54:11;99704.38;;;5.73;85.23
82728;BME280;72459;50.110;8.750;2024-01-06T06:56:37;99712.13;;;5.72;84.63
82728;BME280;72459;50.110;8.750;2024-01-06T06:59:02;99716.81;;;5.60;81.40
82728;BME280;72459;50.110;8.750;2024-01-06T07:01:28;99722.16;;;5.63;82.30
82728;BME280;72459;50.110;8.750;2024-01-06T07:03:53;99725.88;;;5.68;84.65
82728;BME280;72459;50.110;8.750;2024-01-06T07:06:19;99727.22;;;5.60;82.58
82728;BME280;72459;50.110;8.750;2024-01-06T07:08:45;99727.16;;;5.58;84.63
82728;BME280;72459;50.110;8.750;2024-01-06T07:11:10;99729.97;;;5.63;84.23
82728;BME280;72459;50.110;8.750;2024-01-06T07:13:37;99728.47;;;5.68;84.66
82728;BME280;72459;50.110;8.750;2024-01-06T07:16:02;99732.59;;;5.63;83.09
82728;BME280;72459;50.110;8.750;2024-01-06T07:18:28;99736.84;;;5.61;83.99
82728;BME280;72459;50.110;8.750;2024-01-06T07:20:53;99748.06;;;5.60;82.83
82728;BME280;72459;50.110;8.750;2024-01-06T07:23:18;99750.69;;;5.60;82.17
82728;BME280;72459;50.110;8.750;2024-01-06T07:25:44;99744.88;;;5.65;85.25
82728;BME280;72459;50.110;8.750;2024-01-06T07:28:09;99749.19;;;5.65;84.84
82728;BME280;72459;50.110;8.750;2024-01-06T07:30:34;99751.25;;;5.72;85.65
82728;BME280;72459;50.110;8.750;2024-01-06T07:33:00;99748.91;;;5.59;83.44
82728;BME280;72459;50.110;8.750;2024-01-06T07:35:25;99756.03;;;5.63;83.29
82728;BME280;72459;50.110;8.750;2024-01-06T07:37:51;99758.28;;;5.55;81.66
82728;BME280;72459;50.110;8.750;2024-01-06T07:40:16;99761.13;;;5.60;84.16
82728;BME280;72459;50.110;8.750;2024-01-06T07:42:43;99769.69;;;5.57;82.11
82728;BME280;72459;50.110;8.750;2024-01-06T07:45:09;99773.03;;;5.55;81.67
82728;BME280;72459;50.110;8.750;2024-01-06T07:47:35;99770.56;;;5.58;83.75
82728;BME280;72459;50.110;8.750;2024-01-06T07:50:01;99769.16;;;5.64;83.91
82728;BME280;72459;50.110;8.750;2024-01-06T07:52:26;99771.13;;;5.70;84.78
82728;BME280;72459;50.110;8.750;2024-01-06T07:54:52;99774.03;;;5.76;84.67
82728;BME280;72459;50.110;8.750;2024-01-06T07:57:17;99777.94;;;5.66;82.67
82728;BME280;72459;50.110;8.750;2024-01-06T07:59:43;99778.00;;;5.68;83.24
82728;BME280;72459;50.110;8.750;2024-01-06T08:02:08;99783.13;;;5.66;82.76
82728;BME280;72459;50.110;8.750;2024-01-06T08:04:34;99790.03;;;5.84;85.28
82728;BME280;72459;50.110;8.750;2024-01-06T08:06:59;99787.94;;;5.77;81.59
82728;BME280;72459;50.110;8.750;2024-01-06T08:09:25;99796.38;;;5.89;83.96
82728;BME280;72459;50.110;8.750;2024-01-06T08:11:50;99807.38;;;5.83;81.98
82728;BME280;72459;50.110;8.750;2024-01-06T08:14:15;99810.34;;;5.89;84.47
82728;BME280;72459;50.110;8.750;2024-01-06T08:16:42;99802.22;;;5.85;83.12
82728;BME280;72459;50.110;8.750;2024-01-06T08:19:08;99811.56;;;5.97;84.63
82728;BME280;72459;50.110;8.750;2024-01-06T08:21:33;99819.75;;;6.05;84.48
82728;BME280;72459;50.110;8.750;2024-01-06T08:24:00;99815.22;;;6.01;84.80
82728;BME280;72459;50.110;8.750;2024-01-06T08:26:26;99824.75;;;6.00;85.06
82728;BME280;72459;50.110;8.750;2024-01-06T08:28:52;99827.84;;;5.92;83.99
82728;BME280;72459;50.110;8.750;2024-01-06T08:31:17;99823.69;;;5.79;84.50
82728;BME280;72459;50.110;8.750;2024-01-06T08:33:43;99826.34;;;5.97;84.95
82728;BME280;72459;50.110;8.750;2024-01-06T08:36:08;99828.41;;;5.86;85.14
82728;BME280;72459;50.110;8.750;2024-01-06T08:38:35;99833.41;;;5.99;85.55
82728;BME280;72459;50.110;8.750;2024-01-06T08:41:01;99822.41;;;6.07;85.31
82728;BME280;72459;50.110;8.750;2024-01-06T08:43:27;99828.03;;;5.96;83.54
82728;BME280;72459;50.110;8.750;2024-01-06T08:45:53;99836.16;;;6.02;85.52
82728;BME280;72459;50.110;8.750;2024-01-06T08:48:18;99847.06;;;5.94;84.59
82728;BME280;72459;50.110;8.750;2024-01-06T08:50:44;99853.03;;;5.91;84.28
82728;BME280;72459;50.110;8.750;2024-01-06T08:53:11;99854.94;;;5.95;84.30
82728;BME280;72459;50.110;8.750;2024-01-06T08:55:36;99859.47;;;5.99;83.67
82728;BME280;72459;50.110;8.750;2024-01-06T08:58:02;99860.50;;;6.03;83.61
82728;BME280;72459;50.110;8.750;2024-01-06T09:00:27;99856.75;;;6.16;85.40
82728;BME280;72459;50.110;8.750;2024-01-06T09:02:53;99858.06;;;6.25;85.01
82728;BME280;72459;50.110;8.750;2024-01-06T09:05:18;99863.56;;;6.31;84.19
82728;BME280;72459;50.110;8.750;2024-01-06T09:07:43;99859.25;;;6.51;84.91
82728;BME280;72459;50.110;8.750;2024-01-06T09:10:17;99858.97;;;6.64;84.83
82728;BME280;72459;50.110;8.750;2024-01-06T09:12:43;99867.25;;;6.36;82.12
82728;BME280;72459;50.110;8.750;2024-01-06T09:15:09;99863.28;;;6.25;82.50
82728;BME280;72459;50.110;8.750;2024-01-06T09:17:34;99868.00;;;6.15;82.18
82728;BME280;72459;50.110;8.750;2024-01-06T09:20:00;99869.94;;;6.19;82.99
82728;BME280;72459;50.110;8.750;2024-01-06T09:22:26;99871.38;;;6.31;84.88
82728;BME280;72459;50.110;8.750;2024-01-06T09:24:51;99872.00;;;6.26;84.69
82728;BME280;72459;50.110;8.750;2024-01-06T09:27:19;99874.19;;;6.17;84.39
82728;BME280;72459;50.110;8.750;2024-01-06T09:29:45;99892.09;;;6.09;84.33
82728;BME280;72459;50.110;8.750;2024-01-06T09:32:10;99882.69;;;6.13;84.90
82728;BME280;72459;50.110;8.750;2024-01-06T09:34:36;99887.78;;;6.29;85.39
82728;BME280;72459;50.110;8.750;2024-01-06T09:37:02;99889.03;;;6.18;84.48
82728;BME280;72459;50.110;8.750;2024-01-06T09:39:28;99901.72;;;6.10;83.58
82728;BME280;72459;50.110;8.750;2024-01-06T09:41:56;99892.25;;;6.12;82.92
82728;BME280;72459;50.110;8.750;2024-01-06T09:44:21;99899.31;;;6.15;83.04
82728;BME280;72459;50.110;8.750;2024-01-06T09:46:47;99893.97;;;6.12;82.74
82728;BME280;72459;50.110;8.750;2024-01-06T09:49:13;99900.78;;;6.27;85.05
82728;BME280;72459;50.110;8.750;2024-01-06T09:51:40;99892.72;;;6.23;83.50
82728;BME280;72459;50.110;8.750;2024-01-06T09:54:08;99894.84;;;6.12;83.03
82728;BME280;72459;50.110;8.750;2024-01-06T09:56:36;99897.34;;;6.28;84.25
82728;BME280;72459;50.110;8.750;2024-01-06T09:59:01;99898.09;;;6.26;82.04
82728;BME280;72459;50.110;8.750;2024-01-06T10:01:30;99898.63;;;6.19;83.50
82728;BME280;72459;50.110;8.750;2024-01-06T10:03:55;99898.66;;;6.38;84.31
82728;BME280;72459;50.110;8.750;2024-01-06T10:06:21;99901.53;;;6.44;84.91
82728;BME280;72459;50.110;8.750;2024-01-06T10:08:51;99901.59;;;6.26;81.62
82728;BME280;72459;50.110;8.750;2024-01-06T10:11:17;99908.06;;;6.34;83.77
82728;BME280;72459;50.110;8.750;2024-01-06T10:13:43;99911.13;;;6.26;82.54
82728;BME280;72459;50.110;8.750;2024-01-06T10:16:08;99913.47;;;6.20;83.01
82728;BME280;72459;50.110;8.750;2024-01-06T10:18:34;99911.53;;;6.16;83.42
82728;BME280;72459;50.110;8.750;2024-01-06T10:21:04;99910.84;;;6.20;83.97
82728;BME280;72459;50.110;8.750;2024-01-06T10:23:33;99907.34;;;6.19;83.60
82728;BME280;72459;50.110;8.750;2024-01-06T10:25:58;99913.41;;;6.38;84.66
82728;BME280;72459;50.110;8.750;2024-01-06T10:28:24;99904.44;;;6.50;84.35
82728;BME280;72459;50.110;8.750;2024-01-06T10:30:53;99911.47;;;6.51;83.81
82728;BME280;72459;50.110;8.750;2024-01-06T10:33:23;99913.19;;;6.51;83.75
82728;BME280;72459;50.110;8.750;2024-01-06T10:35:49;99912.63;;;6.58;84.14
82728;BME280;72459;50.110;8.750;2024-01-06T10:38:15;99911.03;;;6.61;83.94
82728;BME280;72459;50.110;8.750;2024-01-06T10:43:25;99922.25;;;6.59;82.83
82728;BME280;72459;50.110;8.750;2024-01-06T10:45:53;99918.59;;;6.75;84.81
82728;BME280;72459;50.110;8.750;2024-01-06T10:48:20;99922.44;;;6.83;84.84
82728;BME280;72459;50.110;8.750;2024-01-06T10:50:47;99921.75;;;6.87;84.40
82728;BME280;72459;50.110;8.750;2024-01-06T10:53:14;99918.13;;;7.04;85.08
82728;BME280;72459;50.110;8.750;2024-01-06T10:55:41;99906.47;;;7.15;84.52
82728;BME280;72459;50.110;8.750;2024-01-06T10:58:07;99909.31;;;7.21;85.00
82728;BME280;72459;50.110;8.750;2024-01-06T11:00:33;99912.59;;;6.96;83.94
82728;BME280;72459;50.110;8.750;2024-01-06T11:02:59;99908.84;;;7.11;84.27
82728;BME280;72459;50.110;8.750;2024-01-06T11:05:25;99906.75;;;6.83;81.59
82728;BME280;72459;50.110;8.750;2024-01-06T11:07:52;99899.25;;;6.90;81.47
82728;BME280;72459;50.110;8.750;2024-01-06T11:10:21;99909.13;;;7.17;84.75
82728;BME280;72459;50.110;8.750;2024-01-06T11:13:09;99910.47;;;7.28;82.96
82728;BME280;72459;50.110;8.750;2024-01-06T11:15:46;99908.81;;;7.30;81.94
82728;BME280;72459;50.110;8.750;2024-01-06T11:18:35;99900.47;;;7.18;79.87
82728;BME280;72459;50.110;8.750;2024-01-06T11:21:18;99905.63;;;7.37;82.54
82728;BME280;72459;50.110;8.750;2024-01-06T11:26:31;99902.28;;;7.62;84.70
82728;BME280;72459;50.110;8.750;2024-01-06T11:28:57;99897.44;;;7.71;83.32
82728;BME280;72459;50.110;8.750;2024-01-06T11:31:30;99904.28;;;7.47;80.84
82728;BME280;72459;50.110;8.750;2024-01-06T11:33:56;99905.00;;;7.22;78.86
82728;BME280;72459;50.110;8.750;2024-01-06T11:36:21;99906.91;;;7.47;81.01
82728;BME280;72459;50.110;8.750;2024-01-06T11:38:47;99898.91;;;7.85;84.06
82728;BME280;72459;50.110;8.750;2024-01-06T11:41:48;99899.91;;;8.11;84.31
82728;BME280;72459;50.110;8.750;2024-01-06T11:44:18;99891.91;;;8.07;81.16
82728;BME280;72459;50.110;8.750;2024-01-06T11:46:45;99892.97;;;8.34;84.15
82728;BME280;72459;50.110;8.750;2024-01-06T11:49:12;99891.19;;;8.55;83.75
82728;BME280;72459;50.110;8.750;2024-01-06T11:51:40;99885.81;;;8.30;77.79
82728;BME280;72459;50.110;8.750;2024-01-06T11:54:05;99881.97;;;8.67;82.38
82728;BME280;72459;50.110;8.750;2024-01-06T11:56:31;99873.34;;;8.69;82.45
82728;BME280;72459;50.110;8.750;2024-01-06T11:58:56;99881.28;;;8.96;83.85
82728;BME280;72459;50.110;8.750;2024-01-06T12:01:22;99887.34;;;8.95;81.55
82728;BME280;72459;50.110;8.750;2024-01-06T12:03:54;99882.13;;;8.95;81.19
82728;BME280;72459;50.110;8.750;2024-01-06T12:06:20;99884.38;;;9.10;83.85
82728;BME280;72459;50.110;8.750;2024-01-06T12:08:48;99880.06;;;9.10;83.48
82728;BME280;72459;50.110;8.750;2024-01-06T12:11:20;99873.59;;;8.77;77.57
82728;BME280;72459;50.110;8.750;2024-01-06T12:13:46;99875.50;;;8.81;83.78
82728;BME280;72459;50.110;8.750;2024-01-06T12:16:11;99884.25;;;8.57;81.38
82728;BME280;72459;50.110;8.750;2024-01-06T12:18:37;99876.75;;;8.67;84.06
82728;BME280;72459;50.110;8.750;2024-01-06T12:21:02;99879.75;;;8.53;81.23
82728;BME280;72459;50.110;8.750;2024-01-06T12:23:28;99882.97;;;8.46;83.18
82728;BME280;72459;50.110;8.750;2024-01-06T12:25:55;99882.53;;;8.58;84.35
82728;BME280;72459;50.110;8.750;2024-01-06T12:28:21;99880.78;;;8.35;80.96
82728;BME280;72459;50.110;8.750;2024-01-06T12:30:46;99880.59;;;8.52;84.39
82728;BME280;72459;50.110;8.750;2024-01-06T12:33:12;99884.63;;;8.44;81.17
82728;BME280;72459;50.110;8.750;2024-01-06T12:35:39;99882.72;;;8.40;83.72
82728;BME280;72459;50.110;8.750;2024-01-06T12:38:04;99886.94;;;8.59;84.91
82728;BME280;72459;50.110;8.750;2024-01-06T12:40:35;99884.56;;;8.20;79.79
82728;BME280;72459;50.110;8.750;2024-01-06T12:43:01;99887.34;;;8.25;83.69
82728;BME280;72459;50.110;8.750;2024-01-06T12:45:26;99884.50;;;8.41;83.63
82728;BME280;72459;50.110;8.750;2024-01-06T12:47:53;99887.00;;;8.16;78.09
82728;BME280;72459;50.110;8.750;2024-01-06T12:50:19;99884.16;;;7.87;77.61
82728;BME280;72459;50.110;8.750;2024-01-06T12:52:44;99891.59;;;7.99;84.20
82728;BME280;72459;50.110;8.750;2024-01-06T12:55:11;99885.22;;;8.15;82.04
82728;BME280;72459;50.110;8.750;2024-01-06T12:57:36;99885.22;;;8.37;84.87
82728;BME280;72459;50.110;8.750;2024-01-06T13:00:02;99892.81;;;8.31;80.69
82728;BME280;72459;50.110;8.750;2024-01-06T13:02:29;99888.44;;;8.52;84.42
82728;BME280;72459;50.110;8.750;2024-01-06T13:04:54;99887.16;;;8.65;84.69
82728;BME280;72459;50.110;8.750;2024-01-06T13:07:20;99885.22;;;8.60;83.62
82728;BME280;72459;50.110;8.750;2024-01-06T13:09:47;99890.94;;;8.49;80.63